Time;durP1;ratioP1;P1;durP2;ratioP2;P2;SDS_P1;SDS_P2;PMS_P1;PMS_P2;Temp;Humidity;BMP_temperature;BMP_pressure;BME280_temperature;BME280_humidity;BME280_pressure;Samples;Min_cycle;Max_cycle;Signal;HPM_P1;HPM_P2
2023/10/28 00:00:58;;;;;;;0.85;0.60;;;20.40;59.00;;;;;;5039415;28;20500;-67
2023/10/28 00:03:24;;;;;;;1.05;0.60;;;20.40;59.00;;;;;;5041665;28;20044;-68
2023/10/28 00:05:50;;;;;;;1.27;0.75;;;20.40;59.00;;;;;;5038219;28;20509;-68
2023/10/28 00:08:16;;;;;;;1.02;0.60;;;20.40;59.00;;;;;;5040797;28;20040;-68
2023/10/28 00:10:42;;;;;;;1.23;0.68;;;20.40;59.00;;;;;;5039862;28;20032;-69
2023/10/28 00:13:08;;;;;;;1.13;0.70;;;20.40;59.00;;;;;;5040347;28;20025;-68
2023/10/28 00:15:35;;;;;;;1.23;0.68;;;20.40;59.00;;;;;;5038040;28;20033;-68
2023/10/28 00:18:02;;;;;;;0.82;0.60;;;20.30;58.90;;;;;;5036737;28;20099;-69
2023/10/28 00:20:29;;;;;;;1.67;0.80;;;20.30;58.90;;;;;;5039268;28;20029;-69
2023/10/28 00:22:57;;;;;;;1.42;0.68;;;20.30;58.90;;;;;;5039824;28;20031;-69
2023/10/28 00:25:25;;;;;;;1.50;0.63;;;20.30;58.80;;;;;;5051719;28;20408;-69
2023/10/28 00:27:55;;;;;;;0.90;0.68;;;20.30;58.80;;;;;;5037075;28;20022;-69
2023/10/28 00:30:22;;;;;;;1.27;0.80;;;20.30;58.80;;;;;;5037391;28;20034;-68
2023/10/28 00:32:49;;;;;;;0.90;0.68;;;20.30;58.80;;;;;;5037414;28;20025;-69
2023/10/28 00:35:15;;;;;;;1.50;0.80;;;20.30;58.80;;;;;;5036654;28;20026;-69
2023/10/28 00:37:42;;;;;;;1.73;0.75;;;20.30;58.80;;;;;;5039255;28;20029;-69
2023/10/28 00:40:08;;;;;;;1.27;0.70;;;20.30;58.80;;;;;;5038633;28;20025;-69
2023/10/28 00:42:35;;;;;;;0.90;0.60;;;20.30;58.80;;;;;;5040130;28;20109;-69
2023/10/28 00:45:02;;;;;;;1.30;0.70;;;20.30;58.80;;;;;;5038312;28;20029;-69
2023/10/28 00:47:28;;;;;;;0.88;0.70;;;20.30;58.70;;;;;;5038064;28;20021;-69
2023/10/28 00:49:54;;;;;;;1.08;0.68;;;20.30;58.80;;;;;;5037291;28;20033;-69
2023/10/28 00:52:21;;;;;;;1.45;0.73;;;20.30;58.80;;;;;;5039143;28;20087;-69
2023/10/28 00:54:47;;;;;;;1.08;0.60;;;20.30;58.70;;;;;;5039313;28;20056;-69
2023/10/28 00:57:15;;;;;;;0.90;0.60;;;20.30;58.70;;;;;;5039175;28;20018;-69
2023/10/28 00:59:42;;;;;;;1.10;0.68;;;20.30;58.70;;;;;;5037668;28;20480;-69
2023/10/28 01:02:12;;;;;;;0.80;0.57;;;20.30;58.70;;;;;;5036777;28;20421;-68
2023/10/28 01:04:38;;;;;;;1.25;0.60;;;20.30;58.70;;;;;;5039432;28;20031;-69
2023/10/28 01:07:05;;;;;;;1.33;0.63;;;20.30;58.70;;;;;;5037991;28;20473;-69
2023/10/28 01:09:31;;;;;;;1.45;0.70;;;20.30;58.60;;;;;;5038787;28;20028;-69
2023/10/28 01:11:57;;;;;;;1.25;0.70;;;20.30;58.60;;;;;;5035787;28;20468;-67
2023/10/28 01:14:22;;;;;;;0.82;0.60;;;20.30;59.10;;;;;;5039490;28;20754;-67
2023/10/28 01:16:51;;;;;;;0.95;0.60;;;20.30;58.60;;;;;;5036233;28;20116;-67
2023/10/28 01:19:16;;;;;;;1.02;0.57;;;20.20;58.50;;;;;;5036837;28;20086;-66
2023/10/28 01:21:42;;;;;;;1.08;0.60;;;20.30;58.60;;;;;;5038314;28;20028;-67
2023/10/28 01:24:08;;;;;;;1.15;0.75;;;20.20;58.60;;;;;;5036990;28;20439;-66
2023/10/28 01:26:36;;;;;;;1.15;0.70;;;20.20;58.60;;;;;;5037717;28;20033;-66
2023/10/28 01:29:02;;;;;;;1.33;0.70;;;20.20;58.50;;;;;;5037465;28;20022;-67
2023/10/28 01:31:28;;;;;;;1.27;0.73;;;20.20;58.50;;;;;;5039048;28;20188;-66
2023/10/28 01:33:54;;;;;;;0.75;0.55;;;20.20;58.50;;;;;;5036825;28;20029;-68
2023/10/28 01:36:19;;;;;;;0.80;0.60;;;20.20;58.50;;;;;;5036957;28;20029;-68
2023/10/28 01:38:45;;;;;;;1.00;0.80;;;20.20;58.50;;;;;;5037869;28;20220;-68
2023/10/28 01:41:13;;;;;;;1.08;0.65;;;20.20;58.50;;;;;;5039623;28;20469;-68
2023/10/28 01:43:40;;;;;;;0.82;0.60;;;20.20;58.50;;;;;;5035681;28;20108;-68
2023/10/28 01:46:06;;;;;;;1.00;0.50;;;20.20;58.40;;;;;;5039345;28;20044;-68
2023/10/28 01:48:32;;;;;;;0.65;0.60;;;20.20;58.40;;;;;;5038188;28;20334;-68
2023/10/28 01:50:57;;;;;;;0.50;0.50;;;20.20;58.50;;;;;;5037550;28;20439;-68
2023/10/28 01:53:24;;;;;;;0.60;0.50;;;20.20;58.40;;;;;;5038023;28;20032;-66
2023/10/28 01:55:50;;;;;;;0.60;0.50;;;20.20;58.40;;;;;;5040051;28;20045;-66
2023/10/28 01:58:17;;;;;;;0.90;0.70;;;20.20;58.40;;;;;;5041238;28;20061;-66
2023/10/28 02:00:43;;;;;;;1.77;0.70;;;20.20;58.40;;;;;;5043709;28;20021;-67
2023/10/28 02:03:11;;;;;;;1.13;0.60;;;20.20;58.40;;;;;;5040312;28;20108;-67
2023/10/28 02:05:37;;;;;;;1.13;0.55;;;20.20;58.30;;;;;;5041899;28;20032;-67
2023/10/28 02:08:03;;;;;;;0.88;0.50;;;20.20;58.30;;;;;;5039308;28;20079;-67
2023/10/28 02:10:29;;;;;;;0.60;0.60;;;20.20;58.30;;;;;;5041580;28;20481;-67
2023/10/28 02:12:54;;;;;;;0.60;0.57;;;20.20;58.20;;;;;;5043176;28;20021;-66
2023/10/28 02:15:20;;;;;;;0.85;0.50;;;20.10;58.20;;;;;;5040146;28;20152;-66
2023/10/28 02:17:46;;;;;;;0.63;0.60;;;20.20;58.30;;;;;;5040002;28;20037;-66
2023/10/28 02:20:13;;;;;;;0.57;0.40;;;20.20;58.30;;;;;;5042423;28;20035;-67
2023/10/28 02:22:39;;;;;;;0.73;0.60;;;20.10;58.20;;;;;;5040406;28;20057;-69
2023/10/28 02:25:06;;;;;;;0.73;0.60;;;20.20;58.20;;;;;;5040193;28;20052;-68
2023/10/28 02:27:33;;;;;;;0.95;0.60;;;20.10;58.20;;;;;;5041971;28;20060;-68
2023/10/28 02:29:59;;;;;;;0.55;0.50;;;20.10;58.20;;;;;;5056122;28;20021;-69
2023/10/28 02:32:25;;;;;;;0.40;0.40;;;20.10;58.20;;;;;;5039637;28;20032;-68
2023/10/28 02:34:50;;;;;;;0.47;0.47;;;20.10;58.20;;;;;;5040590;28;20076;-68
2023/10/28 02:37:16;;;;;;;1.17;0.60;;;20.10;58.20;;;;;;5042805;28;20389;-69
2023/10/28 02:39:42;;;;;;;0.70;0.50;;;20.10;58.30;;;;;;5041245;28;20501;-68
2023/10/28 02:42:07;;;;;;;0.60;0.60;;;20.10;58.20;;;;;;5039473;28;20021;-68
2023/10/28 02:44:33;;;;;;;0.77;0.50;;;20.10;58.30;;;;;;5040183;28;20112;-67
2023/10/28 02:46:59;;;;;;;0.63;0.60;;;20.10;58.30;;;;;;5040605;28;20034;-68
2023/10/28 02:49:25;;;;;;;0.80;0.57;;;20.10;58.20;;;;;;5038235;28;20075;-68
2023/10/28 02:51:51;;;;;;;0.70;0.45;;;20.10;58.30;;;;;;5039312;28;20021;-67
2023/10/28 02:54:16;;;;;;;0.57;0.47;;;20.10;58.30;;;;;;5040062;28;20044;-68
2023/10/28 02:56:44;;;;;;;0.68;0.60;;;20.10;58.20;;;;;;5038527;28;20445;-68
2023/10/28 02:59:11;;;;;;;0.60;0.50;;;20.10;58.30;;;;;;5040225;28;20083;-68
2023/10/28 03:01:39;;;;;;;0.50;0.50;;;20.10;58.30;;;;;;5039783;28;20033;-68
2023/10/28 03:04:05;;;;;;;0.50;0.50;;;20.10;58.30;;;;;;5037701;28;20508;-67
2023/10/28 03:06:32;;;;;;;0.77;0.60;;;20.10;58.30;;;;;;5038537;28;20025;-68
2023/10/28 03:08:58;;;;;;;0.47;0.47;;;20.00;58.20;;;;;;5041910;28;20065;-68
2023/10/28 03:11:23;;;;;;;0.60;0.60;;;20.10;58.30;;;;;;5037936;28;20035;-68
2023/10/28 03:13:49;;;;;;;0.65;0.50;;;20.10;58.30;;;;;;5039765;28;20028;-68
2023/10/28 03:16:15;;;;;;;0.40;0.40;;;20.10;58.30;;;;;;5040311;28;20375;-67
2023/10/28 03:18:40;;;;;;;0.93;0.73;;;20.10;58.30;;;;;;5038984;28;20032;-68
2023/10/28 03:21:06;;;;;;;0.70;0.50;;;20.10;58.30;;;;;;5040627;28;20029;-68
2023/10/28 03:23:32;;;;;;;1.00;0.60;;;20.10;58.30;;;;;;5037824;28;20033;-67
2023/10/28 03:25:58;;;;;;;0.50;0.50;;;20.00;58.20;;;;;;5037481;28;20382;-67
2023/10/28 03:28:24;;;;;;;0.70;0.60;;;20.00;58.20;;;;;;5041590;28;20095;-68
2023/10/28 03:30:50;;;;;;;0.63;0.55;;;20.00;58.20;;;;;;5039094;28;20032;-68
2023/10/28 03:33:15;;;;;;;0.52;0.50;;;20.10;58.20;;;;;;5038900;28;20025;-68
2023/10/28 03:35:41;;;;;;;0.50;0.40;;;20.10;58.20;;;;;;5038575;28;20033;-69
2023/10/28 03:38:07;;;;;;;0.90;0.50;;;20.10;58.20;;;;;;5039312;28;20043;-69
2023/10/28 03:40:32;;;;;;;0.70;0.50;;;20.00;58.20;;;;;;5039218;28;20110;-69
2023/10/28 03:42:58;;;;;;;0.77;0.50;;;20.00;58.20;;;;;;5039626;28;20115;-69
2023/10/28 03:45:24;;;;;;;0.93;0.65;;;20.00;58.20;;;;;;5040483;28;20113;-69
2023/10/28 03:47:50;;;;;;;0.45;0.43;;;20.00;58.20;;;;;;5039824;28;20539;-68
2023/10/28 03:50:15;;;;;;;0.82;0.50;;;20.00;58.20;;;;;;5037252;28;20151;-69
2023/10/28 03:52:41;;;;;;;0.80;0.52;;;20.00;58.20;;;;;;5040168;28;20052;-69
2023/10/28 03:55:07;;;;;;;0.57;0.50;;;20.00;58.20;;;;;;5037254;28;20365;-69
2023/10/28 03:57:33;;;;;;;0.45;0.45;;;20.00;58.20;;;;;;5037582;28;20086;-69
2023/10/28 03:59:58;;;;;;;0.90;0.60;;;20.00;58.30;;;;;;5046171;28;20477;-69
2023/10/28 04:02:25;;;;;;;1.05;0.60;;;20.00;58.20;;;;;;5039241;28;20155;-69
2023/10/28 04:04:51;;;;;;;0.50;0.50;;;20.00;58.20;;;;;;5039329;28;20051;-69
2023/10/28 04:07:17;;;;;;;0.85;0.50;;;20.00;58.20;;;;;;5037645;28;20465;-68
2023/10/28 04:09:42;;;;;;;0.57;0.50;;;20.00;58.20;;;;;;5039353;28;20029;-69
2023/10/28 04:12:08;;;;;;;0.82;0.60;;;19.90;58.20;;;;;;5039513;28;20112;-69
2023/10/28 04:14:35;;;;;;;0.40;0.40;;;20.00;58.30;;;;;;5038658;28;20131;-69
2023/10/28 04:17:02;;;;;;;0.57;0.50;;;20.00;58.30;;;;;;5037961;28;20033;-69
2023/10/28 04:19:28;;;;;;;0.88;0.50;;;20.00;58.30;;;;;;5036655;28;20025;-69
2023/10/28 04:21:54;;;;;;;0.47;0.47;;;20.00;58.40;;;;;;5038332;28;20033;-69
2023/10/28 04:24:20;;;;;;;0.40;0.40;;;20.00;58.40;;;;;;5038262;28;20516;-70
2023/10/28 04:26:45;;;;;;;0.68;0.50;;;20.00;58.30;;;;;;5038509;28;20037;-69
2023/10/28 04:29:11;;;;;;;0.57;0.43;;;20.00;58.40;;;;;;5039823;28;20433;-70
2023/10/28 04:31:37;;;;;;;0.70;0.50;;;19.90;58.30;;;;;;5036379;28;20067;-69
2023/10/28 04:34:03;;;;;;;0.57;0.45;;;19.90;58.30;;;;;;5036925;28;20021;-69
2023/10/28 04:36:29;;;;;;;0.35;0.32;;;19.90;58.30;;;;;;5039559;28;20500;-69
2023/10/28 04:38:54;;;;;;;0.82;0.50;;;19.90;58.30;;;;;;5038451;28;20037;-69
2023/10/28 04:41:20;;;;;;;0.77;0.50;;;19.90;58.30;;;;;;5038796;28;20041;-69
2023/10/28 04:43:46;;;;;;;1.00;0.60;;;19.90;58.30;;;;;;5038289;28;20457;-67
2023/10/28 04:46:11;;;;;;;0.73;0.60;;;19.90;58.30;;;;;;5038163;28;20397;-66
2023/10/28 04:48:38;;;;;;;1.33;0.70;;;19.90;58.30;;;;;;5036499;28;20021;-66
2023/10/28 04:51:05;;;;;;;0.50;0.50;;;19.90;58.30;;;;;;5038645;28;20017;-67
2023/10/28 04:53:31;;;;;;;0.60;0.60;;;19.90;58.30;;;;;;5037670;28;20510;-67
2023/10/28 04:55:57;;;;;;;0.90;0.50;;;19.90;58.30;;;;;;5038403;28;20029;-66
2023/10/28 04:58:24;;;;;;;0.45;0.45;;;19.90;58.30;;;;;;5037320;28;20052;-68
2023/10/28 05:00:50;;;;;;;0.35;0.35;;;19.90;58.30;;;;;;5038481;28;20033;-67
2023/10/28 05:03:15;;;;;;;0.50;0.47;;;19.90;58.30;;;;;;5039797;28;20040;-70
2023/10/28 05:05:41;;;;;;;0.47;0.38;;;19.90;58.40;;;;;;5037737;28;20388;-70
2023/10/28 05:08:07;;;;;;;0.63;0.50;;;19.90;58.30;;;;;;5037080;28;20108;-69
2023/10/28 05:10:33;;;;;;;0.50;0.50;;;19.90;58.40;;;;;;5039883;28;20453;-70
2023/10/28 05:13:03;;;;;;;0.80;0.50;;;19.90;58.40;;;;;;5038520;28;20041;-70
2023/10/28 05:15:31;;;;;;;;;;;19.90;58.90;;;;;;5037383;28;20033;-69
2023/10/28 05:17:57;;;;;;;0.55;0.50;;;19.90;58.40;;;;;;5039130;28;20360;-69
2023/10/28 05:20:22;;;;;;;0.45;0.45;;;19.90;58.40;;;;;;5038676;28;20036;-70
2023/10/28 05:22:48;;;;;;;0.40;0.40;;;19.90;58.40;;;;;;5036841;28;20047;-68
2023/10/28 05:25:13;;;;;;;0.40;0.40;;;19.90;58.40;;;;;;5037059;28;20414;-68
2023/10/28 05:27:39;;;;;;;0.50;0.47;;;19.90;58.40;;;;;;5038525;28;20025;-68
2023/10/28 05:30:12;;;;;;;0.40;0.40;;;19.90;58.40;;;;;;5038606;28;20112;-69
2023/10/28 05:32:39;;;;;;;0.50;0.50;;;19.90;58.40;;;;;;5041853;28;20037;-68
2023/10/28 05:35:07;;;;;;;0.40;0.40;;;19.90;58.40;;;;;;5039394;28;20104;-68
2023/10/28 05:37:33;;;;;;;0.70;0.55;;;19.90;58.40;;;;;;5049544;28;20036;-68
2023/10/28 05:39:59;;;;;;;0.73;0.52;;;19.90;58.40;;;;;;5041688;28;20473;-68
2023/10/28 05:42:24;;;;;;;0.55;0.50;;;19.90;58.40;;;;;;5040513;28;20163;-69
2023/10/28 05:44:50;;;;;;;0.50;0.50;;;19.90;58.40;;;;;;5040457;28;20028;-68
2023/10/28 05:47:16;;;;;;;0.65;0.40;;;19.90;58.40;;;;;;5041285;28;20021;-68
2023/10/28 05:49:42;;;;;;;0.45;0.45;;;19.90;58.40;;;;;;5040380;28;20029;-68
2023/10/28 05:52:09;;;;;;;0.75;0.50;;;19.90;58.50;;;;;;5041132;28;20473;-68
2023/10/28 05:54:35;;;;;;;0.75;0.55;;;19.90;58.40;;;;;;5041145;28;20029;-68
2023/10/28 05:57:00;;;;;;;0.43;0.40;;;19.90;58.40;;;;;;5039813;28;20087;-68
2023/10/28 05:59:26;;;;;;;0.50;0.40;;;19.90;58.50;;;;;;5039819;28;20037;-69
2023/10/28 06:01:52;;;;;;;0.77;0.50;;;19.90;58.40;;;;;;5040748;28;20028;-68
2023/10/28 06:04:21;;;;;;;0.50;0.40;;;19.90;58.40;;;;;;5039919;28;20029;-70
2023/10/28 06:06:47;;;;;;;1.05;0.60;;;19.90;58.40;;;;;;5040645;28;20037;-70
2023/10/28 06:09:13;;;;;;;0.43;0.38;;;19.90;58.50;;;;;;5041902;28;20479;-70
2023/10/28 06:11:40;;;;;;;0.80;0.50;;;19.90;58.50;;;;;;5040991;28;20040;-70
2023/10/28 06:14:05;;;;;;;0.50;0.50;;;19.90;58.50;;;;;;5041274;28;20018;-69
2023/10/28 06:16:31;;;;;;;0.60;0.60;;;19.80;58.40;;;;;;5041174;28;20040;-69
2023/10/28 06:18:57;;;;;;;0.40;0.40;;;19.90;58.50;;;;;;5040350;28;20084;-69
2023/10/28 06:21:23;;;;;;;0.45;0.45;;;19.90;58.40;;;;;;5040560;28;20476;-68
2023/10/28 06:23:48;;;;;;;0.60;0.40;;;19.90;58.50;;;;;;5039133;28;20107;-68
2023/10/28 06:26:14;;;;;;;0.52;0.50;;;19.90;58.50;;;;;;5041488;28;20029;-69
2023/10/28 06:28:40;;;;;;;0.30;0.30;;;19.80;58.90;;;;;;5040913;28;20025;-68
2023/10/28 06:31:06;;;;;;;0.40;0.40;;;19.90;58.40;;;;;;5041252;28;20044;-68
2023/10/28 06:33:35;;;;;;;0.75;0.50;;;19.90;58.50;;;;;;5040160;28;20473;-68
2023/10/28 06:36:00;;;;;;;1.67;0.50;;;19.90;58.50;;;;;;5039501;28;20473;-68
2023/10/28 06:38:28;;;;;;;0.50;0.40;;;19.80;58.40;;;;;;5038860;28;20025;-67
2023/10/28 06:40:53;;;;;;;0.47;0.40;;;19.80;58.40;;;;;;5039107;28;20021;-69
2023/10/28 06:43:19;;;;;;;0.70;0.50;;;19.80;58.40;;;;;;5038812;28;20029;-68
2023/10/28 06:45:45;;;;;;;0.40;0.40;;;19.90;58.40;;;;;;5040656;28;20370;-68
2023/10/28 06:48:11;;;;;;;0.88;0.60;;;19.80;58.40;;;;;;5038941;28;20030;-68
2023/10/28 06:50:36;;;;;;;0.80;0.50;;;19.90;58.40;;;;;;5039299;28;20484;-68
2023/10/28 06:53:02;;;;;;;0.90;0.60;;;19.90;58.50;;;;;;5038812;28;20060;-68
2023/10/28 06:55:28;;;;;;;0.93;0.60;;;19.90;58.50;;;;;;5041361;28;20056;-68
2023/10/28 06:57:55;;;;;;;0.65;0.50;;;19.90;58.40;;;;;;5040141;28;20488;-68
2023/10/28 07:00:26;;;;;;;0.80;0.50;;;19.90;58.40;;;;;;5038966;28;20048;-68
2023/10/28 07:02:52;;;;;;;1.00;0.70;;;19.90;58.40;;;;;;5039768;28;20029;-69
2023/10/28 07:05:18;;;;;;;1.05;0.70;;;19.90;58.40;;;;;;5040187;28;20026;-70
2023/10/28 07:07:45;;;;;;;1.00;0.60;;;19.90;58.40;;;;;;5040282;28;20147;-70
2023/10/28 07:10:14;;;;;;;0.60;0.60;;;19.80;58.30;;;;;;5039840;28;20028;-70
2023/10/28 07:12:40;;;;;;;1.70;0.80;;;19.90;58.40;;;;;;5040183;28;20534;-70
2023/10/28 07:15:09;;;;;;;0.88;0.70;;;19.90;58.40;;;;;;5040885;28;20025;-71
2023/10/28 07:17:35;;;;;;;1.30;0.80;;;19.90;58.30;;;;;;5038581;28;20037;-70
2023/10/28 07:20:01;;;;;;;1.35;0.95;;;19.80;58.20;;;;;;5039679;28;20033;-70
2023/10/28 07:22:27;;;;;;;1.42;0.90;;;19.80;58.20;;;;;;5039389;28;20036;-70
2023/10/28 07:24:55;;;;;;;2.28;0.80;;;19.80;58.20;;;;;;5039743;28;20029;-69
2023/10/28 07:27:21;;;;;;;1.40;0.85;;;19.80;58.20;;;;;;5038588;28;20041;-69
2023/10/28 07:29:50;;;;;;;1.60;1.00;;;19.90;58.30;;;;;;5039673;28;20055;-69
2023/10/28 07:32:15;;;;;;;1.40;1.00;;;19.80;58.20;;;;;;5039184;28;20050;-69
2023/10/28 07:34:42;;;;;;;1.83;1.10;;;19.90;58.20;;;;;;5038440;28;20064;-69
2023/10/28 07:37:07;;;;;;;1.27;0.80;;;19.90;58.20;;;;;;5039621;28;20078;-69
2023/10/28 07:39:34;;;;;;;1.33;0.80;;;19.90;58.20;;;;;;5039049;28;20532;-69
2023/10/28 07:41:59;;;;;;;1.83;1.00;;;19.90;58.20;;;;;;5042062;28;20476;-69
2023/10/28 07:44:25;;;;;;;1.55;1.00;;;19.90;58.30;;;;;;5038179;28;20029;-69
2023/10/28 07:46:51;;;;;;;2.03;0.95;;;19.90;58.20;;;;;;5038712;28;20116;-69
2023/10/28 07:49:16;;;;;;;1.45;0.90;;;19.90;58.20;;;;;;5037327;28;20025;-69
2023/10/28 07:51:42;;;;;;;1.80;1.00;;;19.90;58.50;;;;;;5038738;28;20090;-69
2023/10/28 07:54:08;;;;;;;1.45;1.00;;;19.80;58.20;;;;;;5045808;28;20036;-69
2023/10/28 07:56:34;;;;;;;1.48;0.93;;;19.90;58.20;;;;;;5040708;28;20032;-69
2023/10/28 07:59:00;;;;;;;1.55;0.93;;;19.90;58.20;;;;;;5037765;28;20028;-69
2023/10/28 08:01:29;;;;;;;2.00;1.00;;;19.90;58.20;;;;;;5039209;28;20104;-69
2023/10/28 08:03:55;;;;;;;1.45;1.00;;;19.90;58.20;;;;;;5038668;28;20165;-69
2023/10/28 08:06:21;;;;;;;2.05;1.10;;;19.90;58.20;;;;;;5038189;28;20042;-69
2023/10/28 08:08:47;;;;;;;1.15;0.90;;;19.80;58.20;;;;;;5038366;28;20048;-69
2023/10/28 08:11:13;;;;;;;1.13;0.85;;;19.90;58.20;;;;;;5038497;28;20037;-69
2023/10/28 08:13:40;;;;;;;1.58;1.10;;;19.90;58.20;;;;;;5038325;28;20033;-69
2023/10/28 08:16:18;;;;;;;1.30;0.90;;;19.80;58.20;;;;;;5040602;28;20049;-69
2023/10/28 08:18:45;;;;;;;1.88;1.08;;;19.80;58.20;;;;;;5038191;28;20498;-69
2023/10/28 08:21:13;;;;;;;1.10;0.70;;;19.80;58.70;;;;;;5038074;28;20036;-69
2023/10/28 08:23:39;;;;;;;1.60;0.90;;;19.90;58.20;;;;;;5037273;28;20024;-67
2023/10/28 08:26:08;;;;;;;1.58;0.90;;;19.80;58.20;;;;;;5039327;28;20036;-67
2023/10/28 08:28:33;;;;;;;1.30;0.90;;;19.80;58.20;;;;;;5038377;28;20150;-67
2023/10/28 08:30:59;;;;;;;1.60;0.93;;;19.90;58.20;;;;;;5036586;28;20111;-67
2023/10/28 08:33:24;;;;;;;1.58;0.98;;;19.90;58.20;;;;;;5038068;28;20056;-68
2023/10/28 08:35:54;;;;;;;1.90;0.90;;;19.90;58.20;;;;;;5037152;28;20022;-68
2023/10/28 08:38:19;;;;;;;1.48;0.98;;;19.80;58.20;;;;;;5039109;28;20425;-68
2023/10/28 08:40:46;;;;;;;0.93;0.80;;;19.80;58.20;;;;;;5039379;28;20174;-68
2023/10/28 08:43:14;;;;;;;1.10;0.80;;;19.90;58.20;;;;;;5040324;28;20516;-68
2023/10/28 08:45:42;;;;;;;1.27;0.80;;;19.80;58.20;;;;;;5037566;28;20025;-68
2023/10/28 08:48:10;;;;;;;1.55;0.95;;;19.90;58.20;;;;;;5037918;28;20029;-68
2023/10/28 08:50:39;;;;;;;1.38;0.82;;;19.90;58.20;;;;;;5037417;28;20369;-68
2023/10/28 08:53:08;;;;;;;1.75;1.00;;;19.90;58.20;;;;;;5039238;28;20032;-69
2023/10/28 08:55:36;;;;;;;1.23;0.90;;;19.90;58.20;;;;;;5038409;28;20032;-69
2023/10/28 08:58:03;;;;;;;1.95;0.90;;;19.80;58.20;;;;;;5043786;28;20029;-69
2023/10/28 09:00:30;;;;;;;1.85;1.10;;;19.80;58.20;;;;;;5037727;28;20022;-69
2023/10/28 09:02:56;;;;;;;1.40;0.90;;;19.90;58.20;;;;;;5070591;28;20506;-69
2023/10/28 09:05:22;;;;;;;1.83;1.00;;;19.90;58.20;;;;;;5037222;28;20040;-69
2023/10/28 09:07:48;;;;;;;1.95;1.00;;;19.90;58.20;;;;;;5070417;28;20460;-69
2023/10/28 09:10:15;;;;;;;1.90;1.08;;;19.80;58.20;;;;;;5038321;28;20033;-69
2023/10/28 09:12:41;;;;;;;1.73;0.90;;;19.90;58.30;;;;;;5040162;28;20370;-69
2023/10/28 09:15:08;;;;;;;1.33;0.85;;;19.90;58.20;;;;;;5039765;28;20045;-69
2023/10/28 09:17:34;;;;;;;2.30;1.05;;;19.90;58.20;;;;;;5038457;28;20033;-69
2023/10/28 09:20:00;;;;;;;2.22;1.00;;;19.90;58.20;;;;;;5038295;28;20033;-69
2023/10/28 09:22:26;;;;;;;1.77;1.00;;;19.80;58.10;;;;;;5036541;28;20028;-69
2023/10/28 09:24:55;;;;;;;2.10;0.93;;;19.90;58.20;;;;;;5038170;28;20491;-69
2023/10/28 09:27:21;;;;;;;2.13;1.17;;;19.80;58.10;;;;;;5038660;28;20036;-69
2023/10/28 09:29:47;;;;;;;1.83;0.90;;;19.90;58.10;;;;;;5037700;28;20033;-69
2023/10/28 09:32:13;;;;;;;1.90;1.02;;;19.90;58.10;;;;;;5039143;28;20112;-69
2023/10/28 09:34:40;;;;;;;2.25;1.10;;;19.90;58.00;;;;;;5037650;28;20481;-69
2023/10/28 09:37:07;;;;;;;2.03;1.00;;;19.90;58.00;;;;;;5037576;28;20473;-69
2023/10/28 09:39:33;;;;;;;1.80;0.93;;;19.90;58.60;;;;;;5038927;28;20391;-69
2023/10/28 09:42:00;;;;;;;1.52;0.95;;;19.90;58.00;;;;;;5040159;28;20059;-69
2023/10/28 09:44:26;;;;;;;1.75;1.00;;;19.90;58.00;;;;;;5036565;28;20030;-68
2023/10/28 09:47:03;;;;;;;1.70;1.00;;;19.90;58.00;;;;;;5037527;28;20035;-68
2023/10/28 09:49:30;;;;;;;1.83;1.00;;;19.90;58.00;;;;;;5044594;28;20465;-68
2023/10/28 09:52:16;;;;;;;1.85;1.00;;;19.90;58.00;;;;;;5036175;28;20033;-68
2023/10/28 09:54:43;;;;;;;1.92;1.00;;;19.90;58.00;;;;;;5038104;28;20031;-68
2023/10/28 09:57:10;;;;;;;3.03;0.90;;;19.90;58.00;;;;;;5037316;28;20029;-68
2023/10/28 09:59:40;;;;;;;2.40;1.13;;;19.90;58.00;;;;;;5038156;28;20087;-68
2023/10/28 10:02:32;;;;;;;1.98;1.00;;;19.90;58.00;;;;;;5038907;28;20140;-68
2023/10/28 10:05:15;;;;;;;1.88;1.05;;;19.90;58.00;;;;;;5037423;28;20029;-69
2023/10/28 10:07:41;;;;;;;2.15;1.00;;;19.90;58.00;;;;;;5036968;28;20077;-69
2023/10/28 10:10:16;;;;;;;2.45;1.00;;;19.90;58.00;;;;;;5039643;28;20040;-69
2023/10/28 10:12:42;;;;;;;1.70;0.98;;;19.90;58.00;;;;;;5037877;28;20025;-69
2023/10/28 10:15:10;;;;;;;1.52;1.02;;;19.90;58.00;;;;;;5039120;28;20025;-69
2023/10/28 10:17:58;;;;;;;1.70;0.93;;;19.90;58.00;;;;;;5040570;28;20025;-70
2023/10/28 10:20:28;;;;;;;2.00;1.20;;;19.90;58.00;;;;;;5040150;28;20029;-70
2023/10/28 10:22:58;;;;;;;2.63;0.98;;;19.90;57.90;;;;;;5071335;28;20135;-70
2023/10/28 10:25:57;;;;;;;1.95;0.93;;;19.90;58.00;;;;;;5039608;28;20035;-70
2023/10/28 10:28:23;;;;;;;1.60;0.90;;;19.90;57.90;;;;;;5017089;28;20061;-70
2023/10/28 10:30:49;;;;;;;1.25;0.95;;;19.90;57.90;;;;;;5040646;28;20029;-71
2023/10/28 10:33:27;;;;;;;1.77;1.00;;;19.90;57.90;;;;;;5039901;28;20017;-71
2023/10/28 10:35:54;;;;;;;2.65;1.30;;;19.90;57.90;;;;;;5038070;28;20139;-71
2023/10/28 10:38:28;;;;;;;2.80;1.02;;;19.90;57.90;;;;;;5039713;28;20037;-71
2023/10/28 10:40:58;;;;;;;2.05;1.00;;;19.90;57.90;;;;;;5040367;28;20021;-71
2023/10/28 10:43:31;;;;;;;2.13;1.00;;;19.90;57.90;;;;;;5040617;28;20025;-72
2023/10/28 10:45:58;;;;;;;1.67;1.00;;;19.90;57.90;;;;;;5041827;28;20037;-71
2023/10/28 10:48:25;;;;;;;1.58;0.98;;;19.90;58.00;;;;;;5040058;28;20021;-71
2023/10/28 10:50:51;;;;;;;2.10;1.00;;;19.90;58.00;;;;;;5039289;28;20065;-71
2023/10/28 10:53:17;;;;;;;1.58;0.90;;;20.00;58.10;;;;;;5038874;28;20057;-66
2023/10/28 10:55:42;;;;;;;1.40;0.90;;;19.90;58.10;;;;;;5038534;28;20029;-67
2023/10/28 10:58:08;;;;;;;1.48;0.90;;;20.00;58.10;;;;;;5041148;28;20049;-67
2023/10/28 11:00:34;;;;;;;1.60;0.80;;;20.00;58.20;;;;;;5040406;28;20033;-67
2023/10/28 11:03:00;;;;;;;1.67;0.90;;;20.00;58.20;;;;;;5039027;28;20139;-67
2023/10/28 11:05:30;;;;;;;1.52;0.90;;;20.00;58.20;;;;;;5039864;28;20476;-67
2023/10/28 11:07:56;;;;;;;1.23;0.80;;;20.00;58.20;;;;;;5038840;28;20485;-67
2023/10/28 11:10:23;;;;;;;1.92;0.80;;;20.00;58.20;;;;;;5040407;28;20017;-68
2023/10/28 11:12:49;;;;;;;1.50;0.90;;;20.00;58.20;;;;;;5038427;28;20511;-67
2023/10/28 11:15:15;;;;;;;1.88;0.90;;;20.00;58.60;;;;;;5041283;28;20029;-71
2023/10/28 11:17:41;;;;;;;1.88;1.00;;;20.00;58.10;;;;;;5039605;28;20028;-71
2023/10/28 11:20:10;;;;;;;1.63;0.95;;;20.00;58.10;;;;;;5039832;28;20385;-70
2023/10/28 11:22:37;;;;;;;1.60;0.90;;;20.00;58.10;;;;;;5039162;28;20072;-71
2023/10/28 11:25:04;;;;;;;4.32;1.00;;;20.10;58.20;;;;;;5041182;28;20029;-71
2023/10/28 11:27:31;;;;;;;3.75;0.93;;;20.00;58.10;;;;;;5045763;28;20055;-70
2023/10/28 11:29:57;;;;;;;1.90;0.80;;;20.10;58.20;;;;;;5035293;28;20045;-71
2023/10/28 11:32:23;;;;;;;1.95;0.98;;;20.10;58.20;;;;;;5034927;28;20381;-71
2023/10/28 11:34:52;;;;;;;1.70;0.80;;;20.10;58.20;;;;;;5038945;28;20013;-72
2023/10/28 11:37:18;;;;;;;;;;;20.10;58.20;;;;;;5039234;28;20373;-71
2023/10/28 11:39:47;;;;;;;1.98;0.90;;;20.10;58.20;;;;;;5039871;28;19904;-70
2023/10/28 11:42:15;;;;;;;1.65;0.80;;;20.10;58.20;;;;;;5040471;28;20033;-71
2023/10/28 11:44:41;;;;;;;1.40;0.90;;;20.10;58.20;;;;;;5039328;28;20060;-70
2023/10/28 11:47:09;;;;;;;1.50;0.80;;;20.10;58.10;;;;;;5039771;28;20144;-68
2023/10/28 11:49:35;;;;;;;1.83;1.00;;;20.10;58.20;;;;;;5046835;28;20026;-68
2023/10/28 11:52:01;;;;;;;2.00;1.00;;;20.10;58.10;;;;;;5038201;28;20082;-68
2023/10/28 11:54:26;;;;;;;1.52;0.80;;;20.10;58.10;;;;;;5039821;28;20402;-67
2023/10/28 11:56:52;;;;;;;2.20;0.90;;;20.10;58.20;;;;;;5039124;28;20029;-67
2023/10/28 11:59:18;;;;;;;1.73;0.80;;;20.10;58.20;;;;;;5037763;28;20104;-67
2023/10/28 12:01:43;;;;;;;2.58;0.90;;;20.20;58.20;;;;;;5039266;28;20024;-67
2023/10/28 12:04:09;;;;;;;1.65;0.77;;;20.20;58.20;;;;;;5038808;28;20387;-67
2023/10/28 12:06:35;;;;;;;1.63;0.90;;;20.20;58.20;;;;;;5038320;28;20041;-67
2023/10/28 12:09:04;;;;;;;1.20;0.80;;;20.20;58.20;;;;;;5039216;28;20067;-70
2023/10/28 12:11:31;;;;;;;1.65;0.80;;;20.20;58.20;;;;;;5039910;28;20024;-69
2023/10/28 12:13:57;;;;;;;2.38;0.95;;;20.20;58.20;;;;;;5038682;28;20083;-69
2023/10/28 12:16:23;;;;;;;0.90;0.60;;;20.20;58.20;;;;;;5041007;28;20025;-70
2023/10/28 12:18:49;;;;;;;1.60;0.80;;;20.20;58.10;;;;;;5070484;28;20502;-69
2023/10/28 12:21:17;;;;;;;1.30;0.77;;;20.20;58.20;;;;;;5039086;28;20029;-68
2023/10/28 12:23:44;;;;;;;2.75;1.10;;;20.20;58.10;;;;;;5036500;28;20021;-69
2023/10/28 12:26:11;;;;;;;1.20;0.80;;;20.20;58.10;;;;;;5038300;28;20057;-69
2023/10/28 12:28:37;;;;;;;1.38;0.70;;;20.20;58.10;;;;;;5040622;28;20029;-69
2023/10/28 12:31:03;;;;;;;1.70;0.82;;;20.20;58.10;;;;;;5040636;28;20025;-69
2023/10/28 12:33:29;;;;;;;1.67;0.75;;;20.20;58.10;;;;;;5038792;28;20408;-69
2023/10/28 12:35:56;;;;;;;1.67;0.70;;;20.30;58.20;;;;;;5039286;28;20029;-69
2023/10/28 12:38:21;;;;;;;1.50;0.70;;;20.30;58.10;;;;;;5045059;28;20029;-70
2023/10/28 12:40:47;;;;;;;1.08;0.68;;;20.20;58.10;;;;;;5039116;28;20025;-70
2023/10/28 12:43:13;;;;;;;1.65;0.73;;;20.30;58.10;;;;;;5036828;28;20127;-71
2023/10/28 12:45:38;;;;;;;1.10;0.68;;;20.30;58.10;;;;;;5038785;28;20079;-70